createdAt,value
2018-06-20T00:01:47.180Z,64.36
2018-06-20T00:04:15.822Z,64.37
2018-06-20T00:06:44.326Z,64.68
2018-06-20T00:09:12.954Z,65.03
2018-06-20T00:11:41.542Z,66.23
2018-06-20T00:14:10.131Z,65.52
2018-06-20T00:16:38.718Z,65.16
2018-06-20T00:19:07.218Z,63.87
2018-06-20T00:21:35.787Z,63.89
2018-06-20T00:24:04.386Z,63.38
2018-06-20T00:26:33.026Z,62.83
2018-06-20T00:29:01.614Z,62.47
2018-06-20T00:31:30.238Z,62.17
2018-06-20T00:33:59.999Z,62.25
2018-06-20T00:36:28.591Z,62.21
2018-06-20T00:38:57.275Z,62.10
2018-06-20T00:41:25.870Z,61.92
2018-06-20T00:43:55.178Z,62.24
2018-06-20T00:46:23.822Z,62.08
2018-06-20T00:48:52.423Z,62.68
2018-06-20T00:51:21.425Z,62.90
2018-06-20T00:53:50.030Z,62.31
2018-06-20T00:56:28.554Z,62.72
2018-06-20T00:58:57.142Z,62.62
2018-06-20T01:01:25.783Z,62.31
2018-06-20T01:03:54.830Z,61.74
2018-06-20T01:06:23.769Z,62.29
2018-06-20T01:08:56.343Z,63.08
2018-06-20T01:11:25.361Z,64.18
2018-06-20T01:13:53.923Z,63.27
2018-06-20T01:16:22.501Z,63.04
2018-06-20T01:18:51.130Z,62.93
2018-06-20T01:21:19.678Z,64.33
2018-06-20T01:23:48.660Z,64.86
2018-06-20T01:26:17.894Z,64.00
2018-06-20T01:28:46.440Z,64.13
2018-06-20T01:31:15.129Z,63.20
2018-06-20T01:33:43.722Z,63.04
2018-06-20T01:36:12.220Z,63.08
2018-06-20T01:38:40.797Z,63.32
2018-06-20T01:41:09.590Z,63.41
2018-06-20T01:43:38.385Z,63.75
2018-06-20T01:46:06.952Z,63.00
2018-06-20T01:48:35.547Z,63.63
2018-06-20T01:51:04.142Z,63.38
2018-06-20T01:53:33.411Z,63.40
2018-06-20T01:56:02.081Z,62.89
2018-06-20T01:58:31.178Z,63.38
2018-06-20T02:00:59.861Z,63.20
2018-06-20T02:03:28.368Z,63.99
2018-06-20T02:05:57.026Z,63.73
2018-06-20T02:08:25.608Z,63.95
2018-06-20T02:10:54.215Z,64.50
2018-06-20T02:13:22.878Z,65.32
2018-06-20T02:15:51.378Z,64.36
2018-06-20T02:18:20.092Z,64.40
2018-06-20T02:20:48.547Z,64.76
2018-06-20T02:23:17.203Z,64.17
2018-06-20T02:25:45.705Z,63.90
2018-06-20T02:28:14.272Z,64.50
2018-06-20T02:30:42.863Z,64.34
2018-06-20T02:33:11.541Z,64.29
2018-06-20T02:35:40.124Z,63.05
2018-06-20T02:38:08.778Z,62.51
2018-06-20T02:40:38.022Z,62.04
2018-06-20T02:43:06.602Z,62.08
2018-06-20T02:45:35.317Z,62.35
2018-06-20T02:48:03.878Z,62.27
2018-06-20T02:50:32.447Z,62.43
2018-06-20T02:53:01.128Z,62.23
2018-06-20T02:55:29.662Z,62.51
2018-06-20T02:57:58.291Z,63.38
2018-06-20T03:00:26.787Z,64.50
2018-06-20T03:02:55.415Z,64.30
2018-06-20T03:05:24.040Z,64.98
2018-06-20T03:07:52.607Z,64.94
2018-06-20T03:10:21.229Z,65.63
2018-06-20T03:12:49.787Z,65.70
2018-06-20T03:15:18.397Z,65.27
2018-06-20T03:17:46.953Z,65.98
2018-06-20T03:20:15.741Z,64.73
2018-06-20T03:22:44.235Z,65.36
2018-06-20T03:25:12.901Z,65.60
2018-06-20T03:27:41.510Z,65.43
2018-06-20T03:30:10.073Z,65.31
2018-06-20T03:32:38.718Z,65.55
2018-06-20T03:35:07.226Z,65.39
2018-06-20T03:37:36.026Z,65.04
2018-06-20T03:40:04.627Z,64.44
2018-06-20T03:42:33.218Z,64.54
2018-06-20T03:45:01.792Z,64.04
2018-06-20T03:47:30.562Z,63.96
2018-06-20T03:49:59.248Z,63.95
2018-06-20T03:52:27.932Z,64.52
2018-06-20T03:54:56.515Z,63.10
2018-06-20T03:57:25.011Z,63.66
2018-06-20T03:59:53.581Z,63.83
2018-06-20T04:02:22.146Z,63.38
2018-06-20T04:04:50.761Z,63.05
2018-06-20T04:07:19.430Z,63.15
2018-06-20T04:09:48.992Z,63.55
2018-06-20T04:12:17.538Z,63.42
2018-06-20T04:14:46.123Z,63.38
2018-06-20T04:17:14.711Z,63.49
2018-06-20T04:19:43.207Z,63.57
2018-06-20T04:22:13.006Z,62.62
2018-06-20T04:24:41.617Z,62.57
2018-06-20T04:27:10.347Z,61.97
2018-06-20T04:29:38.955Z,61.52
2018-06-20T04:32:07.865Z,61.42
2018-06-20T04:34:36.452Z,60.54
2018-06-20T04:37:05.907Z,59.67
2018-06-20T04:39:34.487Z,59.67
2018-06-20T04:42:03.173Z,59.52
2018-06-20T04:44:31.817Z,60.00
2018-06-20T04:47:00.441Z,60.35
2018-06-20T04:49:28.994Z,60.53
2018-06-20T04:51:57.494Z,60.18
2018-06-20T04:54:26.195Z,59.12
2018-06-20T04:56:54.985Z,58.44
2018-06-20T04:59:23.669Z,58.90
2018-06-20T05:01:52.291Z,58.39
2018-06-20T05:04:21.467Z,58.67
2018-06-20T05:06:50.077Z,58.63
2018-06-20T05:09:19.332Z,58.69
2018-06-20T05:11:49.994Z,58.29
2018-06-20T05:14:19.358Z,58.40
2018-06-20T05:16:48.252Z,57.90
2018-06-20T05:19:17.182Z,58.85
2018-06-20T05:21:46.344Z,57.90
2018-06-20T05:24:15.024Z,58.00
2018-06-20T05:26:43.618Z,57.52
2018-06-20T05:29:12.234Z,57.67
2018-06-20T05:31:40.827Z,56.23
2018-06-20T05:34:09.470Z,56.08
2018-06-20T05:36:38.085Z,56.05
2018-06-20T05:39:09.493Z,55.96
2018-06-20T05:41:38.233Z,54.77
2018-06-20T05:44:08.134Z,54.36
2018-06-20T05:46:36.978Z,54.49
2018-06-20T05:49:05.847Z,54.84
2018-06-20T05:51:34.367Z,54.21
2018-06-20T05:54:03.035Z,55.61
2018-06-20T05:56:31.681Z,56.11
2018-06-20T05:59:00.186Z,56.56
2018-06-20T06:01:28.838Z,56.75
2018-06-20T06:03:57.410Z,57.08
2018-06-20T06:06:26.085Z,57.12
2018-06-20T06:08:54.632Z,57.35
2018-06-20T06:11:23.138Z,58.02
2018-06-20T06:13:51.718Z,58.23
2018-06-20T06:16:20.952Z,58.31
2018-06-20T06:18:49.445Z,58.41
2018-06-20T06:21:18.150Z,58.55
2018-06-20T06:23:46.769Z,58.64
2018-06-20T06:26:15.436Z,58.74
2018-06-20T06:28:44.070Z,58.26
2018-06-20T06:31:12.698Z,58.34
2018-06-20T06:33:41.383Z,58.26
2018-06-20T06:36:10.090Z,57.78
2018-06-20T06:38:38.755Z,57.99
2018-06-20T06:41:07.439Z,58.19
2018-06-20T06:43:36.022Z,58.35
2018-06-20T06:46:04.651Z,58.56
2018-06-20T06:48:33.300Z,58.68
2018-06-20T06:51:01.976Z,60.15
2018-06-20T06:53:30.558Z,59.42
2018-06-20T06:55:59.251Z,60.46
2018-06-20T06:58:27.730Z,61.28
2018-06-20T07:00:56.382Z,61.83
2018-06-20T07:03:24.895Z,63.04
2018-06-20T07:05:53.475Z,63.54
2018-06-20T07:08:22.055Z,63.63
2018-06-20T07:10:50.638Z,65.79
2018-06-20T07:13:19.429Z,65.31
2018-06-20T07:15:48.114Z,66.66
2018-06-20T07:18:16.695Z,66.44
2018-06-20T07:20:45.214Z,66.79
2018-06-20T07:23:13.745Z,68.97
2018-06-20T07:25:42.280Z,68.36
2018-06-20T07:28:11.414Z,66.44
2018-06-20T07:30:40.125Z,66.55
2018-06-20T07:33:08.621Z,66.51
2018-06-20T07:35:37.307Z,67.11
2018-06-20T07:38:05.778Z,68.54
2018-06-20T07:40:34.304Z,67.55
2018-06-20T07:43:02.931Z,68.82
2018-06-20T07:45:31.986Z,70.66
2018-06-20T07:48:02.045Z,70.98
2018-06-20T07:50:30.615Z,70.98
2018-06-20T07:52:59.130Z,71.26
2018-06-20T07:55:29.138Z,73.84
2018-06-20T07:57:57.811Z,74.07
2018-06-20T08:00:31.662Z,73.02
2018-06-20T08:03:17.867Z,74.33
2018-06-20T08:05:51.723Z,74.27
2018-06-20T08:09:29.568Z,74.72
2018-06-20T08:12:04.071Z,72.90
2018-06-20T08:14:38.686Z,73.49
2018-06-20T08:17:12.482Z,73.84
2018-06-20T08:19:46.999Z,72.74
2018-06-20T08:22:19.167Z,73.78
2018-06-20T08:25:01.492Z,76.58
2018-06-20T08:27:31.439Z,76.96
2018-06-20T08:30:01.562Z,75.54
2018-06-20T08:32:30.513Z,74.90
2018-06-20T08:34:59.358Z,75.31
2018-06-20T08:37:28.068Z,75.11
2018-06-20T08:39:58.946Z,74.69
2018-06-20T08:42:28.169Z,75.42
2018-06-20T08:44:57.356Z,76.07
2018-06-20T08:47:26.498Z,76.64
2018-06-20T08:49:56.114Z,77.18
2018-06-20T08:52:25.404Z,77.03
2018-06-20T08:57:34.579Z,76.23
2018-06-20T09:00:03.162Z,76.38
2018-06-20T09:02:32.243Z,77.15
2018-06-20T09:05:06.016Z,78.09
2018-06-20T09:07:39.799Z,76.32
2018-06-20T09:10:14.478Z,76.44
2018-06-20T09:12:48.146Z,76.46
2018-06-20T09:15:21.994Z,77.84
2018-06-20T09:17:55.737Z,78.13
2018-06-20T09:20:24.282Z,75.92
2018-06-20T09:22:52.854Z,77.94
2018-06-20T09:25:21.462Z,76.74
2018-06-20T09:27:50.071Z,76.77
2018-06-20T09:30:18.631Z,75.82
2018-06-20T09:32:47.200Z,76.68
2018-06-20T09:35:15.854Z,77.49
2018-06-20T09:37:45.194Z,77.48
2018-06-20T09:40:13.845Z,77.43
2018-06-20T09:42:43.282Z,78.72
2018-06-20T09:45:11.889Z,78.44
2018-06-20T09:47:40.470Z,78.11
2018-06-20T09:50:14.198Z,78.05
2018-06-20T09:52:42.796Z,78.48
2018-06-20T09:55:11.426Z,77.96
2018-06-20T09:57:40.883Z,78.81
2018-06-20T10:00:14.796Z,78.86
2018-06-20T10:02:48.495Z,78.49
2018-06-20T10:05:22.211Z,79.47
2018-06-20T10:07:56.004Z,78.39
2018-06-20T10:10:29.829Z,78.44
2018-06-20T10:13:03.611Z,78.63
2018-06-20T10:15:32.297Z,78.54
2018-06-20T10:18:00.790Z,78.04
2018-06-20T10:20:30.370Z,77.66
2018-06-20T10:23:00.362Z,79.25
2018-06-20T10:25:29.649Z,78.30
2018-06-20T10:27:59.204Z,78.22
2018-06-20T10:30:27.828Z,78.43
2018-06-20T10:32:56.474Z,80.75
2018-06-20T10:35:25.002Z,79.83
2018-06-20T10:37:53.699Z,79.00
2018-06-20T10:40:22.221Z,78.85
2018-06-20T10:42:50.839Z,79.01
2018-06-20T10:45:24.664Z,80.35
2018-06-20T10:47:53.220Z,79.92
2018-06-20T10:50:21.798Z,78.65
2018-06-20T10:52:50.379Z,79.98
2018-06-20T10:55:19.249Z,79.76
2018-06-20T10:57:53.006Z,80.92
2018-06-20T11:00:26.756Z,80.60
2018-06-20T11:03:01.327Z,80.21
2018-06-20T11:05:36.210Z,81.56
2018-06-20T11:08:11.255Z,82.23
2018-06-20T11:10:45.572Z,81.48
2018-06-20T11:13:15.858Z,82.44
2018-06-20T11:15:45.439Z,81.61
2018-06-20T11:18:15.509Z,82.90
2018-06-20T11:20:50.337Z,82.29
2018-06-20T11:23:19.455Z,82.90
2018-06-20T11:25:48.035Z,82.80
2018-06-20T11:28:17.576Z,82.54
2018-06-20T11:30:46.971Z,81.84
2018-06-20T11:33:16.068Z,82.08
2018-06-20T11:35:44.614Z,81.53
2018-06-20T11:38:13.284Z,82.50
2018-06-20T11:40:41.848Z,82.37
2018-06-20T11:43:10.362Z,82.53
2018-06-20T11:45:44.282Z,83.90
2018-06-20T11:48:13.763Z,85.05
2018-06-20T11:50:42.364Z,85.62
2018-06-20T11:53:11.850Z,85.50
2018-06-20T11:55:41.916Z,85.71
2018-06-20T11:58:15.853Z,85.88
2018-06-20T12:00:49.679Z,86.72
2018-06-20T12:03:23.462Z,86.78
2018-06-20T12:05:57.274Z,86.61
2018-06-20T12:08:30.955Z,86.40
2018-06-20T12:11:04.730Z,85.67
2018-06-20T12:13:38.495Z,85.83
2018-06-20T12:16:12.350Z,86.67
2018-06-20T12:18:46.138Z,87.97
2018-06-20T12:21:20.326Z,88.09
2018-06-20T12:23:54.262Z,88.10
2018-06-20T12:26:28.243Z,88.98
2018-06-20T12:29:02.051Z,90.24
2018-06-20T12:31:35.882Z,90.55
2018-06-20T12:34:10.888Z,91.80
2018-06-20T12:36:44.662Z,93.36
2018-06-20T12:39:12.428Z,93.81
2018-06-20T12:41:46.367Z,93.70
2018-06-20T12:45:20.991Z,94.58
2018-06-20T12:47:52.855Z,93.86
2018-06-20T12:50:26.561Z,94.09
2018-06-20T12:52:55.550Z,93.54
2018-06-20T12:55:25.098Z,93.24
2018-06-20T12:57:54.355Z,93.29
2018-06-20T13:00:22.955Z,93.12
2018-06-20T13:02:52.240Z,92.48
2018-06-20T13:05:20.895Z,92.13
2018-06-20T13:07:49.510Z,91.62
2018-06-20T13:10:18.294Z,91.02
2018-06-20T13:12:46.831Z,91.15
2018-06-20T13:15:15.970Z,90.85
2018-06-20T13:17:44.527Z,90.76
2018-06-20T13:20:14.043Z,90.49
2018-06-20T13:22:42.644Z,90.01
2018-06-20T13:25:11.327Z,89.30
2018-06-20T13:27:45.135Z,89.05
2018-06-20T13:30:13.970Z,88.34
2018-06-20T13:32:48.339Z,88.05
2018-06-20T13:35:22.573Z,88.17
2018-06-20T13:37:56.360Z,87.86
2018-06-20T13:40:30.030Z,87.33
2018-06-20T13:43:04.301Z,86.79
2018-06-20T13:45:39.074Z,86.25
2018-06-20T13:48:15.955Z,87.15
2018-06-20T13:50:45.269Z,86.84
2018-06-20T13:53:13.973Z,88.00
2018-06-20T13:55:42.594Z,88.38
2018-06-20T13:58:15.175Z,88.56
2018-06-20T14:00:44.134Z,88.55
2018-06-20T14:03:12.808Z,88.89
2018-06-20T14:05:41.680Z,89.08
2018-06-20T14:08:10.279Z,88.88
2018-06-20T14:10:39.002Z,88.60
2018-06-20T14:13:07.546Z,88.74
2018-06-20T14:15:36.233Z,88.54
2018-06-20T14:18:04.868Z,88.06
2018-06-20T14:20:39.440Z,88.01
2018-06-20T14:23:08.025Z,87.51
2018-06-20T14:25:36.647Z,88.00
2018-06-20T14:28:05.272Z,87.12
2018-06-20T14:30:38.996Z,86.00
2018-06-20T14:33:12.797Z,84.29
2018-06-20T14:35:46.605Z,84.90
2018-06-20T14:38:20.358Z,84.97
2018-06-20T14:40:54.114Z,84.63
2018-06-20T14:43:27.916Z,85.60
2018-06-20T14:46:01.782Z,85.84
2018-06-20T14:48:30.410Z,85.75
2018-06-20T14:50:59.090Z,86.13
2018-06-20T14:53:27.807Z,86.56
2018-06-20T14:55:57.034Z,86.16
2018-06-20T14:58:26.210Z,85.93
2018-06-20T15:00:55.517Z,85.78
2018-06-20T15:03:24.070Z,84.87
2018-06-20T15:05:52.658Z,84.94
2018-06-20T15:08:21.992Z,84.83
2018-06-20T15:10:50.534Z,84.50
2018-06-20T15:13:19.157Z,84.26
2018-06-20T15:15:47.707Z,85.21
2018-06-20T15:18:16.628Z,85.50
2018-06-20T15:20:45.573Z,85.12
2018-06-20T15:23:14.354Z,85.55
2018-06-20T15:25:47.090Z,85.35
2018-06-20T15:28:21.548Z,85.53
2018-06-20T15:30:55.363Z,85.78
2018-06-20T15:33:29.163Z,85.20
2018-06-20T15:36:02.974Z,85.27
2018-06-20T15:38:31.626Z,85.34
2018-06-20T15:41:00.339Z,85.71
2018-06-20T15:43:28.895Z,85.30
2018-06-20T15:45:57.408Z,85.18
2018-06-20T15:48:25.891Z,85.38
2018-06-20T15:50:54.577Z,85.57
2018-06-20T15:53:23.224Z,85.89
2018-06-20T15:55:51.747Z,85.96
2018-06-20T15:58:20.424Z,85.56
2018-06-20T16:00:49.250Z,85.62
2018-06-20T16:03:17.830Z,85.81
2018-06-20T16:05:46.481Z,86.07
2018-06-20T16:08:15.514Z,85.88
2018-06-20T16:10:44.158Z,86.21
2018-06-20T16:13:12.787Z,86.02
2018-06-20T16:15:42.095Z,86.24
2018-06-20T16:18:10.623Z,86.12
2018-06-20T16:20:44.302Z,86.23
2018-06-20T16:23:18.133Z,86.08
2018-06-20T16:25:51.793Z,86.38
2018-06-20T16:28:25.538Z,86.27
2018-06-20T16:30:54.138Z,86.07
2018-06-20T16:33:22.704Z,85.79
2018-06-20T16:35:51.195Z,85.86
2018-06-20T16:38:19.765Z,86.27
2018-06-20T16:40:48.452Z,85.62
2018-06-20T16:43:17.006Z,85.77
2018-06-20T16:45:45.743Z,85.48
2018-06-20T16:48:14.404Z,85.25
2018-06-20T16:50:42.987Z,85.53
2018-06-20T16:53:11.598Z,85.08
2018-06-20T16:55:40.298Z,85.58
2018-06-20T16:58:08.940Z,85.86
2018-06-20T17:00:37.627Z,85.95
2018-06-20T17:03:06.330Z,85.82
2018-06-20T17:05:34.830Z,85.63
2018-06-20T17:08:03.479Z,85.77
2018-06-20T17:10:31.994Z,86.00
2018-06-20T17:13:05.868Z,86.13
2018-06-20T17:15:39.630Z,85.63
2018-06-20T17:18:13.686Z,85.45
2018-06-20T17:20:47.414Z,86.02
2018-06-20T17:23:21.258Z,86.04
2018-06-20T17:25:49.786Z,86.57
2018-06-20T17:28:18.506Z,86.67
2018-06-20T17:30:47.142Z,86.33
2018-06-20T17:33:15.831Z,86.51
2018-06-20T17:35:44.338Z,86.56
2018-06-20T17:38:12.999Z,86.32
2018-06-20T17:40:41.631Z,86.23
2018-06-20T17:43:10.162Z,86.99
2018-06-20T17:45:38.789Z,86.78
2018-06-20T17:48:07.373Z,86.27
2018-06-20T17:50:35.893Z,86.67
2018-06-20T17:53:04.595Z,86.74
2018-06-20T17:55:33.185Z,86.63
2018-06-20T17:58:01.702Z,86.54
2018-06-20T18:00:31.286Z,86.76
2018-06-20T18:02:59.816Z,86.71
2018-06-20T18:05:33.551Z,86.82
2018-06-20T18:08:07.206Z,87.17
2018-06-20T18:10:40.930Z,86.99
2018-06-20T18:13:10.767Z,86.88
2018-06-20T18:15:44.790Z,87.29
2018-06-20T18:18:13.516Z,87.72
2018-06-20T18:20:42.149Z,87.35
2018-06-20T18:23:10.678Z,87.93
2018-06-20T18:25:39.294Z,87.96
2018-06-20T18:28:07.998Z,88.85
2018-06-20T18:30:36.683Z,88.55
2018-06-20T18:33:05.350Z,89.30
2018-06-20T18:35:33.916Z,89.14
2018-06-20T18:38:02.537Z,89.39
2018-06-20T18:40:31.074Z,89.45
2018-06-20T18:42:59.762Z,89.33
2018-06-20T18:45:28.363Z,89.03
2018-06-20T18:48:02.199Z,89.23
2018-06-20T18:50:30.820Z,89.43
2018-06-20T18:52:59.458Z,89.50
2018-06-20T18:55:28.904Z,89.48
2018-06-20T18:58:02.768Z,89.47
2018-06-20T19:00:36.568Z,89.54
2018-06-20T19:03:11.565Z,89.10
2018-06-20T19:05:45.411Z,89.36
2018-06-20T19:08:19.178Z,89.42
2018-06-20T19:10:47.724Z,89.22
2018-06-20T19:13:16.420Z,89.06
2018-06-20T19:15:44.942Z,88.91
2018-06-20T19:18:16.558Z,89.44
2018-06-20T19:20:45.146Z,89.27
2018-06-20T19:23:27.262Z,89.37
2018-06-20T19:25:59.161Z,89.30
2018-06-20T19:28:27.850Z,89.66
2018-06-20T19:30:56.366Z,89.58
2018-06-20T19:33:24.883Z,89.39
2018-06-20T19:35:54.314Z,89.67
2018-06-20T19:38:23.000Z,89.81
2018-06-20T19:40:51.685Z,89.67
2018-06-20T19:43:20.264Z,89.99
2018-06-20T19:45:48.762Z,89.39
2018-06-20T19:48:17.379Z,90.09
2018-06-20T19:50:45.922Z,90.06
2018-06-20T19:53:14.601Z,90.09
2018-06-20T19:55:43.951Z,89.70
2018-06-20T19:58:12.584Z,89.76
2018-06-20T20:00:41.373Z,89.73
2018-06-20T20:03:11.539Z,89.78
2018-06-20T20:05:40.051Z,89.74
2018-06-20T20:08:10.705Z,89.59
2018-06-20T20:10:40.318Z,89.48
2018-06-20T20:13:08.835Z,89.73
2018-06-20T20:15:38.141Z,89.75
2018-06-20T20:18:06.713Z,90.03
2018-06-20T20:20:35.557Z,90.13
2018-06-20T20:23:04.059Z,90.02
2018-06-20T20:25:32.613Z,90.13
2018-06-20T20:28:01.210Z,90.31
2018-06-20T20:30:29.897Z,89.97
2018-06-20T20:32:58.414Z,90.13
2018-06-20T20:35:27.062Z,90.00
2018-06-20T20:37:55.598Z,90.12
2018-06-20T20:40:24.162Z,90.18
2018-06-20T20:42:52.811Z,89.74
2018-06-20T20:45:21.910Z,90.20
2018-06-20T20:47:50.507Z,89.90
2018-06-20T20:50:19.115Z,90.10
2018-06-20T20:52:48.475Z,90.01
2018-06-20T20:55:17.018Z,90.03
2018-06-20T20:57:45.666Z,90.26
2018-06-20T21:00:14.223Z,90.18
2018-06-20T21:02:42.805Z,90.00
2018-06-20T21:05:11.446Z,89.35
2018-06-20T21:07:40.018Z,89.25
2018-06-20T21:10:08.764Z,89.19
2018-06-20T21:12:37.443Z,89.56
2018-06-20T21:15:06.334Z,89.37
2018-06-20T21:17:34.858Z,89.50
2018-06-20T21:20:04.421Z,89.63
2018-06-20T21:22:33.099Z,89.34
2018-06-20T21:25:01.792Z,89.43
2018-06-20T21:27:30.375Z,89.50
2018-06-20T21:29:59.000Z,89.56
2018-06-20T21:32:27.578Z,89.01
2018-06-20T21:34:56.180Z,87.74
2018-06-20T21:37:24.822Z,88.16
2018-06-20T21:39:53.419Z,88.58
2018-06-20T21:42:21.990Z,88.99
2018-06-20T21:44:50.614Z,88.88
2018-06-20T21:47:19.242Z,88.79
2018-06-20T21:49:47.866Z,89.09
2018-06-20T21:52:16.478Z,89.36
2018-06-20T21:54:45.045Z,89.52
2018-06-20T21:57:13.809Z,89.54
2018-06-20T21:59:42.464Z,89.61
2018-06-20T22:02:11.019Z,89.51
2018-06-20T22:04:39.732Z,89.46
2018-06-20T22:07:08.354Z,89.70
2018-06-20T22:09:36.899Z,89.29
2018-06-20T22:12:05.586Z,89.65
2018-06-20T22:14:34.273Z,89.82
2018-06-20T22:17:02.853Z,89.32
2018-06-20T22:19:31.434Z,89.23
2018-06-20T22:22:00.037Z,88.79
2018-06-20T22:24:28.720Z,88.88
2018-06-20T22:26:57.315Z,88.76
2018-06-20T22:29:25.970Z,88.60
2018-06-20T22:31:54.644Z,88.75
2018-06-20T22:34:23.238Z,88.90
2018-06-20T22:36:52.624Z,89.06
2018-06-20T22:39:21.135Z,88.71
2018-06-20T22:41:49.674Z,88.63
2018-06-20T22:44:18.356Z,87.85
2018-06-20T22:46:47.014Z,87.35
2018-06-20T22:49:15.643Z,86.72
2018-06-20T22:51:44.241Z,86.45
2018-06-20T22:54:12.823Z,85.69
2018-06-20T22:56:41.405Z,85.37
2018-06-20T22:59:09.902Z,84.51
2018-06-20T23:01:38.495Z,84.63
2018-06-20T23:04:07.094Z,85.06
2018-06-20T23:06:35.736Z,85.30
2018-06-20T23:09:06.280Z,85.18
2018-06-20T23:11:39.907Z,85.32
2018-06-20T23:14:08.552Z,84.03
2018-06-20T23:16:37.189Z,82.00
2018-06-20T23:19:05.770Z,79.67
2018-06-20T23:21:34.423Z,79.52
2018-06-20T23:24:03.138Z,79.50
2018-06-20T23:26:31.814Z,79.86
2018-06-20T23:29:00.714Z,79.24
2018-06-20T23:31:29.406Z,79.37
2018-06-20T23:33:58.039Z,79.74
2018-06-20T23:36:26.719Z,79.63
2018-06-20T23:38:55.303Z,79.09
2018-06-20T23:41:24.258Z,79.67
2018-06-20T23:43:52.818Z,78.97
2018-06-20T23:46:21.382Z,78.60
2018-06-20T23:48:50.050Z,78.16
2018-06-20T23:51:19.431Z,76.62
2018-06-20T23:53:48.032Z,77.09
2018-06-20T23:56:16.609Z,78.29
2018-06-20T23:58:45.227Z,77.30
